Time;durP1;ratioP1;P1;durP2;ratioP2;P2;SDS_P1;SDS_P2;PMS_P1;PMS_P2;Temp;Humidity;BMP_temperature;BMP_pressure;BME280_temperature;BME280_humidity;BME280_pressure;Samples;Min_cycle;Max_cycle;Signal;HPM_P1;HPM_P2
2023/12/24 00:00:19;;;;;;;3.67;1.63;;;12.80;49.70;;;;;;7397754;19;19931;-73
2023/12/24 00:02:45;;;;;;;2.20;0.85;;;12.70;49.50;;;;;;7404256;19;20266;-73
2023/12/24 00:05:12;;;;;;;2.38;1.00;;;12.70;49.50;;;;;;7405018;19;20318;-72
2023/12/24 00:07:38;;;;;;;2.65;1.00;;;12.70;50.00;;;;;;7402258;19;19917;-73
2023/12/24 00:10:04;;;;;;;2.97;1.25;;;12.60;49.90;;;;;;7402699;19;19959;-72
2023/12/24 00:12:30;;;;;;;3.00;1.05;;;12.60;50.90;;;;;;7403644;19;19929;-73
2023/12/24 00:14:55;;;;;;;2.85;0.93;;;12.60;50.80;;;;;;7402594;19;20001;-73
2023/12/24 00:17:21;;;;;;;2.13;0.80;;;12.60;50.20;;;;;;7400125;19;20898;-72
2023/12/24 00:19:47;;;;;;;3.67;1.00;;;12.50;50.60;;;;;;7401939;19;19918;-72
2023/12/24 00:22:13;;;;;;;3.50;1.33;;;12.50;51.10;;;;;;7399596;19;19944;-73
2023/12/24 00:24:38;;;;;;;4.38;1.23;;;12.40;51.30;;;;;;7400666;19;19930;-74
2023/12/24 00:27:04;;;;;;;3.42;1.05;;;12.40;52.00;;;;;;7402361;19;19974;-72
2023/12/24 00:29:30;;;;;;;2.65;0.90;;;12.40;51.50;;;;;;7404584;19;19929;-72
2023/12/24 00:31:56;;;;;;;4.55;1.02;;;12.40;51.80;;;;;;7401580;19;19906;-73
2023/12/24 00:34:23;;;;;;;3.80;1.35;;;12.30;52.70;;;;;;7392413;19;20773;-74
2023/12/24 00:36:48;;;;;;;;;;;12.20;53.50;;;;;;7407787;19;19918;-73
2023/12/24 00:39:14;;;;;;;2.83;1.10;;;12.20;53.70;;;;;;7401040;19;19918;-73
2023/12/24 00:41:40;;;;;;;2.28;0.80;;;12.20;53.80;;;;;;7401954;19;19930;-74
2023/12/24 00:44:06;;;;;;;3.15;1.10;;;12.10;54.10;;;;;;7401548;19;19922;-74
2023/12/24 00:46:32;;;;;;;3.70;1.17;;;12.20;54.80;;;;;;7402705;19;20368;-75
2023/12/24 00:48:58;;;;;;;4.05;1.27;;;12.20;54.40;;;;;;7404497;19;20011;-72
2023/12/24 00:51:23;;;;;;;4.63;1.65;;;12.20;54.60;;;;;;7393770;19;20003;-70
2023/12/24 00:53:49;;;;;;;5.35;1.80;;;12.00;56.40;;;;;;7398405;19;19937;-72
2023/12/24 00:56:15;;;;;;;4.93;2.17;;;12.00;57.20;;;;;;7397975;19;19971;-72
2023/12/24 00:58:40;;;;;;;3.70;1.70;;;11.80;59.10;;;;;;7401181;19;19914;-72
2023/12/24 01:01:06;;;;;;;5.10;2.00;;;11.80;59.30;;;;;;7400603;19;20526;-72
2023/12/24 01:03:32;;;;;;;5.50;2.00;;;11.60;59.80;;;;;;7399915;19;19914;-72
2023/12/24 01:05:58;;;;;;;4.47;1.80;;;11.60;60.60;;;;;;7400603;19;19942;-73
2023/12/24 01:08:23;;;;;;;4.68;1.75;;;11.50;61.90;;;;;;7396389;19;19927;-72
2023/12/24 01:10:49;;;;;;;5.40;1.83;;;11.30;62.90;;;;;;7401493;19;19914;-73
2023/12/24 01:13:19;;;;;;;4.95;1.88;;;11.20;64.90;;;;;;7399399;19;19926;-72
2023/12/24 01:15:48;;;;;;;5.78;2.10;;;11.10;68.00;;;;;;7402380;19;19957;-74
2023/12/24 01:18:15;;;;;;;5.63;2.38;;;11.10;69.00;;;;;;7399915;19;19979;-72
2023/12/24 01:20:41;;;;;;;7.63;2.53;;;11.10;70.40;;;;;;7400304;19;19930;-72
2023/12/24 01:23:07;;;;;;;5.75;2.35;;;11.00;72.20;;;;;;7398610;19;19921;-72
2023/12/24 01:25:34;;;;;;;7.03;3.50;;;10.90;72.40;;;;;;7400134;19;20596;-72
2023/12/24 01:28:00;;;;;;;6.57;2.40;;;11.00;75.30;;;;;;7400429;19;19915;-71
2023/12/24 01:30:25;;;;;;;5.57;2.47;;;11.00;73.20;;;;;;7401106;19;19930;-73
2023/12/24 01:32:51;;;;;;;5.90;2.58;;;11.10;74.20;;;;;;7402448;19;20333;-71
2023/12/24 01:35:17;;;;;;;9.85;3.00;;;11.00;74.20;;;;;;7397853;19;20600;-74
2023/12/24 01:37:43;;;;;;;5.80;2.65;;;11.00;76.30;;;;;;7398782;19;19945;-72
2023/12/24 01:40:09;;;;;;;6.93;2.80;;;10.90;77.50;;;;;;7396883;19;19921;-72
2023/12/24 01:42:35;;;;;;;7.20;3.00;;;10.90;78.20;;;;;;7401704;19;19945;-72
2023/12/24 01:45:00;;;;;;;6.97;2.92;;;10.80;78.60;;;;;;7399809;19;20459;-73
2023/12/24 01:47:27;;;;;;;6.18;2.63;;;10.80;78.80;;;;;;7400558;19;19922;-72
2023/12/24 01:49:52;;;;;;;6.50;2.80;;;10.80;79.50;;;;;;7392174;19;19918;-72
2023/12/24 01:52:19;;;;;;;8.02;2.80;;;10.70;80.40;;;;;;7399210;19;19974;-72
2023/12/24 01:54:47;;;;;;;4.95;2.42;;;10.70;81.80;;;;;;7399601;19;19933;-73
2023/12/24 01:57:13;;;;;;;6.60;3.40;;;10.80;84.30;;;;;;7398513;19;19930;-72
2023/12/24 01:59:40;;;;;;;6.20;2.70;;;10.80;84.60;;;;;;7401685;19;19950;-73
2023/12/24 02:02:07;;;;;;;8.75;2.88;;;10.70;84.50;;;;;;7398825;19;19923;-74
2023/12/24 02:04:33;;;;;;;11.50;2.97;;;10.60;85.80;;;;;;7401042;19;19936;-72
2023/12/24 02:06:58;;;;;;;7.85;3.20;;;10.60;87.30;;;;;;7402132;19;19926;-73
2023/12/24 02:09:24;;;;;;;7.00;3.17;;;10.60;87.40;;;;;;7398733;19;19935;-71
2023/12/24 02:11:50;;;;;;;6.25;3.08;;;10.60;87.50;;;;;;7398122;19;20334;-72
2023/12/24 02:14:16;;;;;;;6.43;2.70;;;10.50;87.90;;;;;;7398163;19;19999;-72
2023/12/24 02:16:43;;;;;;;7.65;3.33;;;10.50;87.10;;;;;;7399364;19;19978;-72
2023/12/24 02:19:18;;;;;;;6.45;2.88;;;10.60;86.70;;;;;;7398840;19;19914;-74
2023/12/24 02:21:44;;;;;;;5.22;2.53;;;10.50;86.70;;;;;;7399004;19;19915;-71
2023/12/24 02:24:10;;;;;;;6.25;2.88;;;10.50;87.00;;;;;;7397646;19;20022;-71
2023/12/24 02:27:17;;;;;;;6.72;3.05;;;10.50;86.80;;;;;;7398466;19;19921;-71
2023/12/24 02:29:46;;;;;;;6.45;3.05;;;10.30;86.40;;;;;;7376830;19;19914;-70
2023/12/24 02:32:15;;;;;;;7.75;3.35;;;10.30;87.10;;;;;;7398546;19;19919;-71
2023/12/24 02:34:47;;;;;;;5.45;2.60;;;10.20;86.80;;;;;;7398128;19;19922;-71
2023/12/24 02:37:14;;;;;;;6.70;3.10;;;10.30;87.10;;;;;;7397509;19;19941;-76
2023/12/24 02:39:41;;;;;;;8.75;3.42;;;10.30;86.80;;;;;;7396253;19;19911;-72
2023/12/24 02:42:08;;;;;;;7.68;3.40;;;10.40;88.90;;;;;;7398262;19;19934;-71
2023/12/24 02:44:37;;;;;;;10.85;3.05;;;10.40;87.90;;;;;;7397387;19;19919;-72
2023/12/24 02:47:04;;;;;;;8.38;3.40;;;10.30;88.00;;;;;;7396511;19;19915;-72
2023/12/24 02:49:30;;;;;;;6.68;2.55;;;10.30;89.20;;;;;;7398457;19;19914;-70
2023/12/24 02:51:55;;;;;;;7.35;3.10;;;10.40;87.00;;;;;;7400414;19;19918;-71
2023/12/24 02:54:21;;;;;;;6.47;2.55;;;10.40;85.60;;;;;;7396827;19;19942;-72
2023/12/24 02:56:47;;;;;;;5.55;2.78;;;10.40;84.80;;;;;;7398167;19;19931;-70
2023/12/24 02:59:13;;;;;;;7.70;3.20;;;10.30;85.60;;;;;;7398096;19;19918;-71
2023/12/24 03:01:38;;;;;;;7.15;2.80;;;10.40;86.80;;;;;;7398591;19;20629;-72
2023/12/24 03:04:04;;;;;;;6.63;3.10;;;10.30;85.70;;;;;;7395330;19;19915;-72
2023/12/24 03:06:30;;;;;;;6.35;2.90;;;10.30;86.70;;;;;;7398991;19;20266;-72
2023/12/24 03:08:56;;;;;;;6.20;2.55;;;10.30;85.80;;;;;;7396550;19;19914;-72
2023/12/24 03:11:22;;;;;;;5.97;2.30;;;10.30;86.30;;;;;;7399357;19;19918;-73
2023/12/24 03:13:48;;;;;;;6.82;2.40;;;10.20;85.80;;;;;;7401052;19;19933;-72
2023/12/24 03:16:13;;;;;;;6.22;2.33;;;10.20;85.50;;;;;;7404149;19;19919;-71
2023/12/24 03:18:39;;;;;;;7.05;2.58;;;10.20;86.90;;;;;;7404087;19;19921;-71
2023/12/24 03:21:05;;;;;;;5.70;2.67;;;10.20;86.10;;;;;;7404811;19;19918;-72
2023/12/24 03:23:30;;;;;;;8.45;3.22;;;10.10;86.40;;;;;;7400857;19;19978;-71
2023/12/24 03:25:56;;;;;;;6.38;2.80;;;10.10;87.80;;;;;;7404629;19;19919;-73
2023/12/24 03:28:22;;;;;;;5.85;3.45;;;10.20;87.90;;;;;;7402802;19;19931;-72
2023/12/24 03:30:48;;;;;;;6.25;3.03;;;10.20;89.30;;;;;;7406626;19;20343;-72
2023/12/24 03:33:14;;;;;;;3.25;1.40;;;10.10;88.30;;;;;;7401479;19;19945;-72
2023/12/24 03:35:40;;;;;;;6.00;2.20;;;10.40;82.40;;;;;;7405010;19;19926;-70
2023/12/24 03:38:06;;;;;;;5.20;2.25;;;10.70;77.20;;;;;;7402886;19;19914;-72
2023/12/24 03:40:32;;;;;;;6.70;2.88;;;10.60;79.30;;;;;;7403504;19;19917;-72
2023/12/24 03:42:57;;;;;;;7.30;3.10;;;10.40;81.90;;;;;;7405041;19;20637;-71
2023/12/24 03:45:25;;;;;;;5.50;2.78;;;10.40;83.90;;;;;;7402020;19;20015;-72
2023/12/24 03:47:52;;;;;;;7.22;2.60;;;10.30;85.50;;;;;;7401923;19;19918;-72
2023/12/24 03:50:17;;;;;;;6.20;3.42;;;10.30;87.50;;;;;;7401600;19;19926;-71
2023/12/24 03:52:43;;;;;;;6.35;3.20;;;10.20;87.60;;;;;;7403299;19;19918;-71
2023/12/24 03:55:09;;;;;;;7.45;2.97;;;10.10;87.50;;;;;;7400076;19;19939;-71
2023/12/24 03:57:35;;;;;;;5.22;2.55;;;10.10;87.30;;;;;;7404795;19;19919;-71
2023/12/24 04:00:01;;;;;;;6.82;2.53;;;10.00;88.80;;;;;;7402169;19;19933;-71
2023/12/24 04:02:26;;;;;;;6.95;3.25;;;10.30;88.00;;;;;;7402734;19;20247;-71
2023/12/24 04:04:52;;;;;;;6.32;2.75;;;10.30;86.90;;;;;;7402794;19;19930;-71
2023/12/24 04:07:19;;;;;;;6.55;2.92;;;10.40;86.20;;;;;;7401770;19;19929;-71
2023/12/24 04:09:45;;;;;;;;;;;10.30;85.70;;;;;;7403682;19;19930;-72
2023/12/24 04:12:11;;;;;;;6.38;2.55;;;10.20;85.70;;;;;;7400738;19;20369;-71
2023/12/24 04:14:38;;;;;;;3.83;1.42;;;10.30;82.70;;;;;;7397323;19;19919;-71
2023/12/24 04:17:04;;;;;;;6.28;1.70;;;10.70;76.40;;;;;;7398995;19;19966;-72
2023/12/24 04:19:30;;;;;;;5.45;2.63;;;10.70;74.80;;;;;;7400526;19;20336;-71
2023/12/24 04:21:56;;;;;;;4.45;1.90;;;10.80;72.60;;;;;;7403799;19;20013;-71
2023/12/24 04:24:22;;;;;;;6.05;1.42;;;10.80;72.40;;;;;;7399872;19;19918;-72
2023/12/24 04:26:48;;;;;;;4.18;1.50;;;10.70;72.60;;;;;;7402637;19;20356;-71
2023/12/24 04:29:13;;;;;;;3.85;1.48;;;10.70;72.50;;;;;;7401987;19;19918;-71
2023/12/24 04:31:39;;;;;;;3.58;1.38;;;10.70;73.00;;;;;;7404952;19;19919;-71
2023/12/24 04:34:08;;;;;;;4.47;1.77;;;10.70;73.20;;;;;;7398541;19;19926;-71
2023/12/24 04:36:35;;;;;;;3.95;1.38;;;10.60;73.00;;;;;;7402242;19;19982;-71
2023/12/24 04:39:02;;;;;;;4.47;1.50;;;10.70;73.50;;;;;;7395563;19;20035;-71
2023/12/24 04:41:28;;;;;;;2.88;1.20;;;10.70;73.20;;;;;;7397452;19;19915;-72
2023/12/24 04:43:57;;;;;;;3.95;1.80;;;10.60;73.60;;;;;;7400735;19;19922;-71
2023/12/24 04:46:22;;;;;;;4.38;2.00;;;10.70;72.10;;;;;;7397224;19;19938;-71
2023/12/24 04:48:48;;;;;;;4.20;2.00;;;10.60;73.00;;;;;;7401586;19;19937;-72
2023/12/24 04:51:14;;;;;;;4.25;1.83;;;10.50;74.60;;;;;;7399545;19;20644;-71
2023/12/24 04:53:40;;;;;;;4.90;2.38;;;10.50;76.40;;;;;;7402659;19;19914;-71
2023/12/24 04:56:06;;;;;;;4.10;2.10;;;10.40;76.60;;;;;;7398569;19;19969;-71
2023/12/24 04:58:32;;;;;;;4.55;2.20;;;10.20;76.50;;;;;;7401472;19;19939;-71
2023/12/24 05:00:58;;;;;;;3.70;1.80;;;10.10;78.80;;;;;;7397354;19;19922;-71
2023/12/24 05:03:23;;;;;;;4.22;1.80;;;10.50;75.70;;;;;;7399116;19;20345;-71
2023/12/24 05:05:49;;;;;;;7.53;2.58;;;10.50;74.90;;;;;;7398639;19;19945;-71
2023/12/24 05:08:15;;;;;;;7.55;2.83;;;10.30;75.90;;;;;;7400128;19;20620;-72
2023/12/24 05:10:41;;;;;;;6.10;2.40;;;10.20;77.80;;;;;;7401323;19;19978;-71
2023/12/24 05:13:07;;;;;;;4.78;2.28;;;10.10;78.60;;;;;;7399024;19;20290;-71
2023/12/24 05:15:34;;;;;;;7.32;2.35;;;10.00;79.60;;;;;;7399477;19;19918;-70
2023/12/24 05:17:59;;;;;;;5.05;1.95;;;9.90;79.70;;;;;;7399233;19;19931;-71
2023/12/24 05:20:25;;;;;;;4.45;1.58;;;10.00;80.50;;;;;;7398566;19;19922;-71
2023/12/24 05:22:51;;;;;;;4.28;1.88;;;10.10;78.50;;;;;;7401991;19;19986;-72
2023/12/24 05:25:16;;;;;;;3.00;1.30;;;10.20;77.00;;;;;;7400570;19;19919;-71
2023/12/24 05:27:43;;;;;;;4.72;1.88;;;10.20;76.50;;;;;;7402650;19;19922;-71
2023/12/24 05:30:11;;;;;;;2.90;1.20;;;10.30;74.80;;;;;;7399351;19;20628;-71
2023/12/24 05:32:38;;;;;;;3.33;1.30;;;10.60;72.50;;;;;;7400313;19;19925;-70
2023/12/24 05:35:05;;;;;;;4.35;1.88;;;11.00;67.90;;;;;;7396458;19;19931;-72
2023/12/24 05:37:31;;;;;;;4.82;1.98;;;10.90;68.60;;;;;;7403529;19;19967;-70
2023/12/24 05:39:57;;;;;;;3.88;1.55;;;10.70;69.70;;;;;;7400810;19;20772;-70
2023/12/24 05:42:23;;;;;;;3.78;1.70;;;10.70;70.70;;;;;;7397645;19;19918;-71
2023/12/24 05:44:48;;;;;;;3.05;1.30;;;10.60;71.10;;;;;;7379714;19;20290;-71
2023/12/24 05:47:14;;;;;;;3.75;1.73;;;10.50;71.50;;;;;;7397470;19;19933;-71
2023/12/24 05:49:40;;;;;;;4.78;1.60;;;10.50;72.00;;;;;;7402639;19;19915;-71
2023/12/24 05:52:05;;;;;;;4.43;1.67;;;10.60;71.80;;;;;;7401102;19;19925;-71
2023/12/24 05:54:31;;;;;;;5.28;2.00;;;10.60;71.90;;;;;;7402842;19;19927;-71
2023/12/24 05:56:57;;;;;;;4.10;1.77;;;10.60;71.80;;;;;;7402109;19;19918;-71
2023/12/24 05:59:23;;;;;;;4.55;1.80;;;10.50;71.90;;;;;;7396841;19;20337;-71
2023/12/24 06:01:48;;;;;;;4.20;1.65;;;10.50;72.20;;;;;;7396452;19;19925;-72
2023/12/24 06:04:14;;;;;;;3.50;1.60;;;10.40;73.10;;;;;;7390577;19;19922;-71
2023/12/24 06:06:41;;;;;;;4.50;1.95;;;10.30;73.70;;;;;;7400355;19;19918;-73
2023/12/24 06:09:07;;;;;;;3.45;1.77;;;10.30;73.80;;;;;;7375307;19;20188;-71
2023/12/24 06:11:33;;;;;;;3.47;1.50;;;10.20;74.90;;;;;;7400946;19;19939;-71
2023/12/24 06:13:59;;;;;;;4.82;2.05;;;10.20;74.80;;;;;;7398588;19;19927;-71
2023/12/24 06:16:25;;;;;;;5.00;2.47;;;10.10;74.90;;;;;;7397596;19;19953;-71
2023/12/24 06:18:50;;;;;;;4.57;2.25;;;10.00;76.90;;;;;;7398203;19;19918;-71
2023/12/24 06:21:16;;;;;;;4.88;2.13;;;10.00;78.20;;;;;;7398756;19;19927;-71
2023/12/24 06:23:42;;;;;;;5.38;2.40;;;9.90;78.40;;;;;;7400487;19;19922;-71
2023/12/24 06:26:08;;;;;;;7.03;2.50;;;10.00;77.70;;;;;;7400126;19;19923;-71
2023/12/24 06:28:33;;;;;;;5.60;2.65;;;9.80;78.40;;;;;;7397745;19;19911;-72
2023/12/24 06:31:00;;;;;;;6.20;2.35;;;9.70;80.20;;;;;;7400556;19;19922;-71
2023/12/24 06:33:26;;;;;;;5.55;2.60;;;9.50;80.70;;;;;;7395311;19;20357;-71
2023/12/24 06:35:52;;;;;;;8.18;3.90;;;9.50;82.70;;;;;;7399888;19;19914;-71
2023/12/24 06:38:18;;;;;;;5.82;2.63;;;9.40;83.50;;;;;;7396948;19;20367;-70
2023/12/24 06:40:44;;;;;;;4.78;2.30;;;9.40;84.60;;;;;;7401205;19;20283;-72
2023/12/24 06:43:10;;;;;;;5.60;2.50;;;9.40;85.70;;;;;;7372733;19;19943;-71
2023/12/24 06:45:35;;;;;;;5.68;2.30;;;9.40;85.60;;;;;;7402213;19;20629;-72
2023/12/24 06:48:02;;;;;;;5.80;2.97;;;9.30;86.10;;;;;;7404981;19;19918;-71
2023/12/24 06:50:29;;;;;;;5.18;2.58;;;9.30;86.70;;;;;;7403121;19;19927;-72
2023/12/24 06:52:55;;;;;;;5.28;2.78;;;9.30;86.50;;;;;;7407194;19;20019;-71
2023/12/24 06:55:21;;;;;;;6.25;2.90;;;9.40;86.30;;;;;;7405520;19;19922;-71
2023/12/24 06:57:47;;;;;;;5.75;2.72;;;9.30;85.30;;;;;;7404582;19;19922;-72
2023/12/24 07:00:13;;;;;;;5.55;2.65;;;9.40;85.90;;;;;;7405802;19;20631;-72
2023/12/24 07:02:39;;;;;;;6.85;2.80;;;9.40;85.70;;;;;;7405345;19;19929;-72
2023/12/24 07:05:05;;;;;;;5.57;2.90;;;9.30;85.80;;;;;;7405001;19;19923;-71
2023/12/24 07:07:31;;;;;;;5.28;2.78;;;9.30;86.00;;;;;;7406844;19;20267;-71
2023/12/24 07:09:57;;;;;;;5.45;2.65;;;9.30;87.00;;;;;;7405850;19;19910;-71
2023/12/24 07:12:23;;;;;;;6.95;2.30;;;9.20;86.30;;;;;;7403961;19;19969;-71
2023/12/24 07:14:48;;;;;;;6.82;2.72;;;9.20;86.20;;;;;;7403643;19;20449;-71
2023/12/24 07:17:14;;;;;;;7.55;3.20;;;9.30;87.20;;;;;;7401684;19;19986;-72
2023/12/24 07:19:40;;;;;;;6.88;2.80;;;9.30;86.80;;;;;;7407178;19;19919;-71
2023/12/24 07:22:06;;;;;;;5.43;2.63;;;9.40;86.60;;;;;;7401756;19;19918;-72
2023/12/24 07:24:31;;;;;;;5.28;2.67;;;9.30;86.00;;;;;;7403241;19;19927;-71
2023/12/24 07:26:57;;;;;;;6.60;2.85;;;9.30;86.50;;;;;;7404597;19;20047;-71
2023/12/24 07:29:24;;;;;;;6.18;3.05;;;9.20;86.40;;;;;;7403017;19;19927;-72
2023/12/24 07:31:50;;;;;;;5.82;2.90;;;9.20;87.50;;;;;;7403467;19;19915;-72
2023/12/24 07:34:15;;;;;;;6.53;3.15;;;9.20;86.70;;;;;;7401249;19;19918;-72
2023/12/24 07:36:42;;;;;;;6.55;3.35;;;9.20;88.00;;;;;;7403394;19;20487;-71
2023/12/24 07:39:08;;;;;;;6.40;3.10;;;9.30;87.80;;;;;;7400936;19;19922;-71
2023/12/24 07:41:34;;;;;;;5.63;2.35;;;9.30;86.20;;;;;;7404455;19;19947;-72
2023/12/24 07:44:00;;;;;;;6.85;2.80;;;9.30;86.10;;;;;;7405281;19;19919;-71
2023/12/24 07:46:25;;;;;;;5.60;2.80;;;9.40;86.30;;;;;;7402644;19;19929;-72
2023/12/24 07:48:51;;;;;;;5.53;2.90;;;9.60;85.00;;;;;;7405238;19;19927;-71
2023/12/24 07:51:17;;;;;;;6.20;2.55;;;9.60;84.10;;;;;;7381894;19;20359;-71
2023/12/24 07:53:43;;;;;;;5.88;2.92;;;9.70;84.30;;;;;;7401049;19;19922;-72
2023/12/24 07:56:10;;;;;;;5.70;2.90;;;9.60;83.30;;;;;;7401206;19;19919;-74
2023/12/24 07:58:36;;;;;;;;;;;9.70;83.70;;;;;;7410976;19;19932;-71
2023/12/24 08:01:02;;;;;;;5.35;2.60;;;9.60;83.40;;;;;;7402032;19;20433;-71
2023/12/24 08:03:28;;;;;;;5.88;3.47;;;9.70;83.50;;;;;;7405042;19;19939;-71
2023/12/24 08:05:54;;;;;;;7.35;3.10;;;9.70;83.30;;;;;;7405670;19;19968;-71
2023/12/24 08:08:19;;;;;;;7.53;2.65;;;9.80;83.10;;;;;;7380004;19;19922;-72
2023/12/24 08:10:45;;;;;;;6.80;2.83;;;9.80;82.20;;;;;;7402234;19;19925;-72
2023/12/24 08:13:11;;;;;;;6.43;3.13;;;10.00;81.70;;;;;;7402552;19;19915;-72
2023/12/24 08:15:37;;;;;;;6.78;3.75;;;10.50;81.40;;;;;;7403173;19;19911;-71
2023/12/24 08:18:04;;;;;;;5.65;3.45;;;12.30;73.30;;;;;;7403916;19;19922;-72
2023/12/24 08:20:29;;;;;;;5.20;3.10;;;13.60;60.40;;;;;;7402146;19;19915;-72
2023/12/24 08:22:55;;;;;;;6.68;3.58;;;14.70;55.90;;;;;;7405223;19;19959;-71
2023/12/24 08:25:21;;;;;;;7.60;3.00;;;15.30;45.90;;;;;;7403323;19;19978;-71
2023/12/24 08:27:48;;;;;;;5.72;2.85;;;15.50;43.30;;;;;;7403821;19;20576;-71
2023/12/24 08:30:14;;;;;;;6.70;3.75;;;15.70;40.00;;;;;;7380751;19;20601;-73
2023/12/24 08:32:40;;;;;;;7.18;3.83;;;15.90;37.20;;;;;;7402542;19;19919;-72
2023/12/24 08:35:06;;;;;;;4.68;2.80;;;16.00;39.00;;;;;;7401141;19;20323;-72
2023/12/24 08:37:32;;;;;;;5.63;3.45;;;16.80;35.80;;;;;;7404080;19;19978;-72
2023/12/24 08:39:58;;;;;;;6.68;3.25;;;17.00;31.70;;;;;;7403728;19;19978;-72
2023/12/24 08:42:23;;;;;;;8.18;3.95;;;16.90;32.20;;;;;;7403361;19;19918;-73
2023/12/24 08:44:49;;;;;;;8.38;4.00;;;17.40;30.90;;;;;;7404525;19;20448;-72
2023/12/24 08:47:15;;;;;;;6.75;3.67;;;17.40;29.10;;;;;;7405140;19;19986;-72
2023/12/24 08:49:41;;;;;;;6.60;3.20;;;16.80;29.60;;;;;;7403382;19;19918;-72
2023/12/24 08:52:06;;;;;;;8.95;3.78;;;16.20;31.50;;;;;;7399565;19;20342;-72
2023/12/24 08:54:32;;;;;;;6.68;3.60;;;15.80;34.00;;;;;;7398130;19;19926;-73
2023/12/24 08:56:58;;;;;;;5.53;3.72;;;15.10;35.90;;;;;;7398826;19;20550;-71
2023/12/24 08:59:24;;;;;;;6.68;3.33;;;14.60;38.30;;;;;;7398984;19;20006;-71
2023/12/24 09:01:49;;;;;;;5.88;3.08;;;14.30;39.50;;;;;;7404793;19;19915;-71
2023/12/24 09:04:16;;;;;;;5.68;3.22;;;14.00;41.20;;;;;;7397798;19;19918;-71
2023/12/24 09:06:42;;;;;;;6.20;3.15;;;13.80;42.70;;;;;;7400651;19;19941;-72
2023/12/24 09:09:08;;;;;;;10.00;3.30;;;13.80;43.30;;;;;;7400967;19;19926;-72
2023/12/24 09:11:35;;;;;;;;;;;13.80;43.40;;;;;;7406311;19;19922;-72
2023/12/24 09:14:01;;;;;;;7.50;3.30;;;13.60;43.20;;;;;;7404022;19;19936;-72
2023/12/24 09:16:28;;;;;;;;;;;13.60;44.60;;;;;;7403579;19;19915;-72
2023/12/24 09:18:53;;;;;;;5.88;3.47;;;13.80;44.30;;;;;;7402522;19;19926;-72
2023/12/24 09:21:19;;;;;;;6.15;3.22;;;13.80;43.90;;;;;;7402089;19;20330;-71
2023/12/24 09:23:45;;;;;;;6.50;3.45;;;14.00;42.70;;;;;;7402932;19;20285;-72
2023/12/24 09:26:12;;;;;;;5.18;2.90;;;14.30;41.70;;;;;;7397973;19;19926;-71
2023/12/24 09:28:38;;;;;;;5.60;3.35;;;14.80;40.10;;;;;;7400287;19;19907;-72
2023/12/24 09:31:04;;;;;;;5.88;3.65;;;15.20;37.10;;;;;;7400298;19;19986;-72
2023/12/24 09:33:32;;;;;;;5.45;3.30;;;15.50;34.70;;;;;;7401534;19;19914;-72
2023/12/24 09:35:57;;;;;;;8.07;3.63;;;15.40;33.80;;;;;;7400334;19;19990;-71
2023/12/24 09:38:23;;;;;;;7.05;3.85;;;15.60;32.30;;;;;;7399554;19;19951;-72
2023/12/24 09:40:49;;;;;;;6.88;4.25;;;15.90;31.80;;;;;;7396719;19;19923;-72
2023/12/24 09:43:15;;;;;;;6.55;3.72;;;16.10;30.90;;;;;;7401238;19;19931;-71
2023/12/24 09:45:43;;;;;;;6.32;3.47;;;16.30;30.10;;;;;;7401908;19;19915;-71
2023/12/24 09:48:09;;;;;;;7.50;3.60;;;16.40;29.10;;;;;;7395562;19;20465;-72
2023/12/24 09:50:35;;;;;;;5.75;3.63;;;16.50;29.10;;;;;;7400000;19;19918;-72
2023/12/24 09:53:03;;;;;;;6.00;3.47;;;16.50;28.30;;;;;;7398993;19;19923;-76
2023/12/24 09:55:28;;;;;;;6.10;3.30;;;16.60;27.80;;;;;;7398422;19;19923;-72
2023/12/24 09:58:00;;;;;;;6.07;3.70;;;16.60;27.00;;;;;;7393462;19;19918;-73
2023/12/24 10:00:26;;;;;;;5.63;3.30;;;16.60;27.80;;;;;;7371643;19;19918;-72
2023/12/24 10:02:52;;;;;;;6.88;3.25;;;16.20;28.20;;;;;;7400372;19;19941;-71
2023/12/24 10:05:18;;;;;;;6.60;3.47;;;16.20;28.50;;;;;;7397615;19;19919;-73
2023/12/24 10:07:47;;;;;;;6.63;3.92;;;16.70;27.10;;;;;;7398801;19;19936;-72
2023/12/24 10:10:17;;;;;;;7.63;3.38;;;16.80;26.00;;;;;;7398343;19;19922;-71
2023/12/24 10:12:43;;;;;;;6.20;3.30;;;16.90;26.10;;;;;;7400278;19;19922;-72
2023/12/24 10:15:10;;;;;;;6.45;4.05;;;17.00;25.40;;;;;;7391740;19;19914;-73
2023/12/24 10:17:36;;;;;;;8.18;4.05;;;17.20;25.10;;;;;;7391389;19;20256;-72
2023/12/24 10:20:09;;;;;;;6.32;4.13;;;16.70;24.40;;;;;;7396031;19;20331;-73
2023/12/24 10:22:38;;;;;;;7.70;3.88;;;17.10;24.80;;;;;;7396964;19;20326;-72
2023/12/24 10:25:06;;;;;;;7.00;3.80;;;17.40;24.20;;;;;;7388233;19;20351;-73
2023/12/24 10:27:33;;;;;;;5.93;3.97;;;17.60;23.60;;;;;;7388995;19;19918;-72
2023/12/24 10:30:13;;;;;;;7.57;4.63;;;17.80;22.80;;;;;;7398031;19;19918;-72
2023/12/24 10:32:43;;;;;;;5.75;3.92;;;17.20;24.00;;;;;;7395937;19;19906;-72
2023/12/24 10:35:09;;;;;;;6.55;4.00;;;17.80;22.00;;;;;;7394134;19;19919;-72
2023/12/24 10:37:35;;;;;;;6.45;3.75;;;17.70;21.60;;;;;;7400446;19;19922;-74
2023/12/24 10:40:10;;;;;;;6.72;4.55;;;18.30;20.90;;;;;;7395900;19;20400;-73
2023/12/24 10:42:38;;;;;;;7.13;4.43;;;17.80;20.90;;;;;;7371351;19;19933;-75
2023/12/24 10:45:08;;;;;;;7.20;4.30;;;17.60;22.20;;;;;;7394847;19;20262;-72
2023/12/24 10:47:38;;;;;;;5.55;3.67;;;18.60;20.70;;;;;;7394629;19;19939;-73
2023/12/24 10:50:04;;;;;;;6.60;3.40;;;19.40;18.10;;;;;;7390167;19;20348;-73
2023/12/24 10:52:30;;;;;;;6.22;3.60;;;20.10;15.50;;;;;;7391926;19;19910;-73
2023/12/24 10:54:59;;;;;;;5.60;3.63;;;20.50;13.50;;;;;;7384380;19;19930;-73
2023/12/24 10:58:10;;;;;;;6.82;4.50;;;20.60;13.60;;;;;;7352544;19;19914;-73
2023/12/24 11:00:36;;;;;;;8.43;4.40;;;20.70;12.80;;;;;;7396099;19;19923;-73
2023/12/24 11:03:02;;;;;;;6.50;4.00;;;20.60;11.80;;;;;;7395274;19;19994;-73
2023/12/24 11:05:40;;;;;;;7.40;4.18;;;21.10;11.70;;;;;;7397633;19;19914;-73
2023/12/24 11:08:26;;;;;;;7.25;4.47;;;21.30;10.90;;;;;;7394524;19;20270;-74
2023/12/24 11:10:56;;;;;;;5.90;4.18;;;21.40;10.10;;;;;;7397255;19;19918;-73
2023/12/24 11:13:34;;;;;;;6.55;3.75;;;21.30;9.50;;;;;;7396719;19;19934;-73
2023/12/24 11:16:01;;;;;;;6.10;3.88;;;21.20;9.40;;;;;;7395398;19;19914;-72
2023/12/24 11:18:40;;;;;;;6.57;3.65;;;21.80;8.30;;;;;;7398301;19;19918;-73
2023/12/24 11:21:06;;;;;;;7.72;3.60;;;22.20;7.70;;;;;;7395647;19;19937;-73
2023/12/24 11:23:34;;;;;;;6.78;3.42;;;22.40;7.00;;;;;;7400322;19;20326;-72
2023/12/24 11:26:21;;;;;;;5.72;3.33;;;22.80;6.30;;;;;;7397404;19;19918;-72
2023/12/24 11:28:48;;;;;;;5.22;3.53;;;23.00;5.30;;;;;;7397735;19;19918;-73
2023/12/24 11:31:27;;;;;;;6.07;3.58;;;22.80;5.50;;;;;;7395744;19;19914;-73
2023/12/24 11:33:55;;;;;;;5.82;3.90;;;22.90;5.30;;;;;;7404745;19;19919;-73
2023/12/24 11:36:26;;;;;;;5.32;3.83;;;23.30;4.40;;;;;;7402258;19;19998;-73
2023/12/24 11:38:57;;;;;;;6.35;3.70;;;23.40;4.10;;;;;;7403153;19;20290;-73
2023/12/24 11:41:23;;;;;;;5.18;4.53;;;23.10;4.10;;;;;;7402758;19;20282;-73
2023/12/24 11:43:55;;;;;;;8.02;3.63;;;23.10;3.20;;;;;;7405324;19;19914;-72
2023/12/24 11:46:26;;;;;;;5.25;3.65;;;23.20;3.10;;;;;;7401885;19;19926;-74
2023/12/24 11:48:55;;;;;;;8.88;3.80;;;23.20;3.20;;;;;;7404778;19;20420;-72
2023/12/24 11:51:23;;;;;;;8.60;4.53;;;23.90;2.80;;;;;;7402529;19;19937;-72
2023/12/24 11:53:56;;;;;;;6.20;4.25;;;24.70;1.90;;;;;;7408132;19;19922;-75
2023/12/24 11:56:23;;;;;;;5.15;3.97;;;25.20;1.00;;;;;;7402578;19;19952;-74
2023/12/24 11:58:49;;;;;;;8.05;4.53;;;25.00;1.00;;;;;;7403720;19;19922;-74
2023/12/24 12:01:24;;;;;;;7.68;4.35;;;25.60;1.00;;;;;;7402396;19;19923;-73
2023/12/24 12:03:56;;;;;;;9.38;4.43;;;26.10;1.00;;;;;;7406856;19;19918;-73
2023/12/24 12:06:21;;;;;;;7.03;4.45;;;26.20;1.00;;;;;;7400044;19;19946;-73
2023/12/24 12:08:48;;;;;;;7.47;5.28;;;26.30;1.00;;;;;;7405260;19;20268;-74
2023/12/24 12:11:14;;;;;;;7.35;4.13;;;26.70;1.00;;;;;;7399332;19;20019;-75
2023/12/24 12:13:40;;;;;;;8.00;3.85;;;27.00;1.00;;;;;;7405265;19;19926;-73
2023/12/24 12:16:06;;;;;;;6.13;3.70;;;26.80;1.00;;;;;;7401262;19;20193;-72
2023/12/24 12:18:31;;;;;;;;;;;26.20;1.00;;;;;;7404527;19;19936;-72
2023/12/24 12:20:57;;;;;;;6.47;4.15;;;26.20;1.00;;;;;;7382058;19;19954;-73
2023/12/24 12:23:23;;;;;;;;;;;26.60;1.00;;;;;;7403340;19;19921;-73
2023/12/24 12:25:50;;;;;;;6.55;3.25;;;26.80;1.00;;;;;;7405211;19;19930;-73
2023/12/24 12:28:15;;;;;;;6.25;3.92;;;26.70;1.00;;;;;;7400888;19;20338;-73
2023/12/24 12:30:41;;;;;;;7.50;3.90;;;27.40;1.00;;;;;;7404306;19;19918;-73
2023/12/24 12:33:08;;;;;;;;;;;27.50;1.00;;;;;;7402452;19;19945;-72
2023/12/24 12:35:34;;;;;;;4.38;3.10;;;27.70;1.00;;;;;;7402360;19;20548;-73
2023/12/24 12:38:00;;;;;;;5.50;3.47;;;27.10;1.00;;;;;;7402139;19;20018;-73
2023/12/24 12:40:27;;;;;;;4.88;4.30;;;26.50;1.00;;;;;;7402710;19;20246;-73
2023/12/24 12:42:53;;;;;;;5.45;3.15;;;25.70;1.00;;;;;;7398437;19;19922;-73
2023/12/24 12:45:18;;;;;;;5.43;3.60;;;26.10;1.00;;;;;;7401791;19;19928;-74
2023/12/24 12:47:44;;;;;;;6.72;3.50;;;26.60;1.00;;;;;;7381546;19;19919;-75